createdAt,value
2023-07-23T00:23:08.056Z,3.90
2023-07-23T00:25:34.684Z,3.93
2023-07-23T00:28:01.612Z,4.20
2023-07-23T00:30:28.211Z,3.90
2023-07-23T00:32:54.826Z,4.03
2023-07-23T00:35:21.620Z,4.70
2023-07-23T00:37:48.518Z,4.50
2023-07-23T00:40:15.148Z,4.83
2023-07-23T00:42:41.713Z,3.90
2023-07-23T00:45:08.408Z,4.10
2023-07-23T00:47:35.032Z,4.17
2023-07-23T00:50:01.724Z,4.20
2023-07-23T00:52:28.380Z,4.50
2023-07-23T00:54:55.001Z,4.40
2023-07-23T00:57:21.602Z,4.43
2023-07-23T00:59:48.541Z,4.40
2023-07-23T01:02:15.088Z,5.30
2023-07-23T01:04:41.701Z,5.03
2023-07-23T01:07:08.574Z,4.67
2023-07-23T01:09:35.223Z,5.40
2023-07-23T01:12:01.842Z,4.90
2023-07-23T01:14:28.542Z,4.40
2023-07-23T01:16:55.138Z,4.00
2023-07-23T01:19:21.710Z,3.73
2023-07-23T01:21:48.311Z,4.40
2023-07-23T01:24:14.934Z,4.53
2023-07-23T01:29:16.264Z,4.90
2023-07-23T01:31:42.965Z,4.10
2023-07-23T01:34:09.560Z,4.00
2023-07-23T01:36:36.190Z,5.20
2023-07-23T01:39:02.786Z,6.10
2023-07-23T01:41:29.550Z,4.40
2023-07-23T01:43:56.368Z,5.30
2023-07-23T01:46:23.014Z,5.73
2023-07-23T01:48:49.635Z,4.90
2023-07-23T01:51:16.216Z,5.53
2023-07-23T01:53:42.828Z,5.77
2023-07-23T01:56:09.383Z,5.10
2023-07-23T01:58:35.968Z,4.90
2023-07-23T02:01:03.319Z,5.70
2023-07-23T02:03:31.001Z,5.57
2023-07-23T02:05:57.714Z,4.93
2023-07-23T02:08:24.313Z,5.50
2023-07-23T02:10:51.001Z,5.40
2023-07-23T02:13:17.664Z,5.70
2023-07-23T02:15:44.378Z,5.30
2023-07-23T02:18:11.096Z,5.53
2023-07-23T02:20:37.659Z,5.00
2023-07-23T02:23:04.634Z,5.47
2023-07-23T02:25:31.677Z,4.70
2023-07-23T02:27:58.337Z,5.03
2023-07-23T02:30:24.921Z,4.60
2023-07-23T02:32:51.553Z,5.27
2023-07-23T02:35:18.160Z,5.20
2023-07-23T02:37:44.863Z,4.40
2023-07-23T02:40:11.432Z,4.07
2023-07-23T02:42:38.079Z,5.70
2023-07-23T02:45:04.985Z,5.27
2023-07-23T02:47:31.586Z,3.60
2023-07-23T02:49:59.003Z,4.80
2023-07-23T02:52:25.614Z,4.57
2023-07-23T02:54:52.204Z,5.80
2023-07-23T02:57:18.881Z,4.73
2023-07-23T02:59:45.515Z,4.33
2023-07-23T03:02:13.248Z,4.67
2023-07-23T03:04:39.824Z,5.47
2023-07-23T03:07:06.413Z,4.73
2023-07-23T03:09:32.978Z,5.13
2023-07-23T03:11:59.592Z,4.93
2023-07-23T03:14:26.273Z,4.77
2023-07-23T03:16:52.876Z,4.60
2023-07-23T03:19:19.578Z,5.20
2023-07-23T03:21:46.153Z,4.73
2023-07-23T03:24:12.792Z,4.67
2023-07-23T03:26:39.411Z,4.30
2023-07-23T03:29:06.019Z,4.97
2023-07-23T03:31:32.670Z,4.73
2023-07-23T03:33:59.629Z,4.33
2023-07-23T03:36:28.016Z,4.73
2023-07-23T03:38:54.620Z,4.93
2023-07-23T03:41:21.252Z,4.83
2023-07-23T03:43:48.776Z,4.90
2023-07-23T03:46:15.425Z,4.50
2023-07-23T03:48:42.085Z,4.60
2023-07-23T03:51:08.670Z,4.30
2023-07-23T03:53:35.273Z,4.20
2023-07-23T03:56:01.867Z,4.50
2023-07-23T03:58:28.422Z,4.60
2023-07-23T04:00:55.094Z,4.80
2023-07-23T04:03:21.770Z,5.43
2023-07-23T04:05:48.425Z,5.50
2023-07-23T04:08:15.106Z,5.03
2023-07-23T04:10:41.835Z,4.67
2023-07-23T04:13:08.572Z,4.40
2023-07-23T04:15:35.264Z,5.13
2023-07-23T04:18:01.845Z,4.40
2023-07-23T04:20:28.477Z,5.53
2023-07-23T04:22:55.062Z,5.23
2023-07-23T04:25:21.697Z,4.33
2023-07-23T04:27:48.308Z,3.93
2023-07-23T04:30:14.999Z,5.27
2023-07-23T04:32:41.697Z,4.40
2023-07-23T04:35:08.380Z,4.93
2023-07-23T04:37:34.987Z,4.93
2023-07-23T04:40:01.618Z,4.23
2023-07-23T04:42:28.234Z,4.60
2023-07-23T04:44:54.870Z,4.83
2023-07-23T04:47:21.492Z,5.17
2023-07-23T04:49:48.209Z,4.97
2023-07-23T04:52:14.875Z,4.27
2023-07-23T04:54:43.856Z,4.60
2023-07-23T04:57:10.476Z,5.00
2023-07-23T04:59:37.119Z,4.97
2023-07-23T05:02:03.789Z,4.67
2023-07-23T05:04:30.458Z,3.90
2023-07-23T05:06:57.022Z,4.07
2023-07-23T05:09:23.634Z,4.90
2023-07-23T05:11:50.263Z,4.27
2023-07-23T05:14:16.818Z,5.70
2023-07-23T05:16:43.500Z,4.70
2023-07-23T05:19:11.606Z,5.00
2023-07-23T05:21:38.424Z,3.80
2023-07-23T05:24:05.010Z,4.10
2023-07-23T05:26:31.594Z,3.80
2023-07-23T05:28:58.167Z,3.43
2023-07-23T05:31:24.859Z,4.10
2023-07-23T05:33:51.480Z,4.40
2023-07-23T05:36:18.044Z,3.67
2023-07-23T05:38:44.701Z,3.80
2023-07-23T05:41:11.375Z,4.13
2023-07-23T05:43:37.947Z,4.53
2023-07-23T05:46:04.746Z,3.57
2023-07-23T05:48:31.373Z,3.90
2023-07-23T05:50:58.008Z,4.10
2023-07-23T05:53:24.599Z,4.17
2023-07-23T05:55:51.237Z,3.80
2023-07-23T05:58:17.861Z,4.00
2023-07-23T06:00:44.567Z,3.80
2023-07-23T06:03:11.307Z,3.63
2023-07-23T06:05:38.012Z,4.23
2023-07-23T06:08:04.777Z,4.13
2023-07-23T06:10:31.474Z,4.00
2023-07-23T06:12:58.063Z,3.27
2023-07-23T06:15:24.749Z,3.60
2023-07-23T06:17:51.416Z,4.20
2023-07-23T06:20:18.136Z,4.00
2023-07-23T06:22:44.740Z,3.50
2023-07-23T06:25:11.812Z,3.53
2023-07-23T06:27:38.401Z,3.77
2023-07-23T06:30:05.059Z,3.03
2023-07-23T06:32:31.728Z,4.00
2023-07-23T06:34:58.446Z,4.00
2023-07-23T06:37:25.125Z,3.00
2023-07-23T06:39:51.750Z,3.67
2023-07-23T06:42:18.405Z,3.73
2023-07-23T06:44:44.987Z,2.70
2023-07-23T06:47:13.119Z,3.00
2023-07-23T06:49:39.796Z,3.37
2023-07-23T06:52:06.427Z,3.50
2023-07-23T06:54:34.018Z,3.50
2023-07-23T06:57:00.734Z,2.93
2023-07-23T06:59:27.376Z,2.87
2023-07-23T07:01:54.000Z,3.30
2023-07-23T07:04:20.839Z,2.70
2023-07-23T07:06:47.451Z,2.70
2023-07-23T07:09:14.024Z,3.20
2023-07-23T07:11:40.602Z,2.60
2023-07-23T07:14:07.229Z,2.77
2023-07-23T07:16:33.945Z,2.50
2023-07-23T07:19:00.606Z,2.90
2023-07-23T07:21:27.595Z,2.67
2023-07-23T07:23:54.603Z,2.60
2023-07-23T07:26:21.272Z,2.73
2023-07-23T07:28:47.906Z,2.53
2023-07-23T07:31:16.474Z,2.67
2023-07-23T07:33:45.099Z,2.53
2023-07-23T07:36:11.807Z,2.43
2023-07-23T07:38:38.468Z,2.73
2023-07-23T07:41:05.064Z,2.40
2023-07-23T07:43:31.644Z,2.70
2023-07-23T07:46:02.406Z,2.37
2023-07-23T07:48:29.196Z,2.37
2023-07-23T07:50:55.809Z,2.23
2023-07-23T07:53:22.464Z,2.20
2023-07-23T07:55:49.043Z,2.30
2023-07-23T07:58:17.324Z,2.03
2023-07-23T08:00:43.901Z,2.00
2023-07-23T08:03:10.699Z,2.33
2023-07-23T08:05:37.603Z,3.27
2023-07-23T08:08:05.503Z,2.50
2023-07-23T08:10:33.818Z,2.17
2023-07-23T08:13:02.226Z,2.87
2023-07-23T08:15:28.837Z,2.30
2023-07-23T08:17:55.501Z,2.20
2023-07-23T08:20:22.089Z,2.53
2023-07-23T08:22:48.774Z,3.17
2023-07-23T08:25:15.381Z,2.60
2023-07-23T08:27:42.130Z,2.30
2023-07-23T08:30:08.682Z,2.97
2023-07-23T08:32:35.379Z,2.27
2023-07-23T08:35:02.066Z,2.33
2023-07-23T08:37:28.675Z,2.10
2023-07-23T08:39:55.278Z,2.47
2023-07-23T08:42:21.868Z,2.13
2023-07-23T08:44:48.556Z,2.03
2023-07-23T08:47:15.888Z,1.73
2023-07-23T08:49:43.521Z,1.50
2023-07-23T08:52:10.109Z,2.17
2023-07-23T08:54:36.717Z,1.80
2023-07-23T08:57:04.484Z,1.57
2023-07-23T08:59:31.150Z,1.90
2023-07-23T09:01:57.777Z,2.20
2023-07-23T09:04:24.534Z,2.43
2023-07-23T09:06:51.145Z,1.80
2023-07-23T09:09:17.829Z,2.53
2023-07-23T09:11:44.436Z,2.30
2023-07-23T09:14:11.066Z,1.87
2023-07-23T09:16:38.277Z,2.37
2023-07-23T09:19:04.913Z,2.17
2023-07-23T09:21:31.649Z,2.27
2023-07-23T09:24:05.606Z,2.77
2023-07-23T09:26:32.273Z,2.13
2023-07-23T09:28:59.005Z,2.13
2023-07-23T09:31:27.655Z,2.27
2023-07-23T09:33:55.032Z,2.30
2023-07-23T09:36:21.607Z,1.67
2023-07-23T09:38:48.314Z,2.23
2023-07-23T09:41:14.877Z,1.67
2023-07-23T09:43:41.509Z,1.93
2023-07-23T09:46:08.168Z,2.50
2023-07-23T09:48:34.824Z,1.80
2023-07-23T09:51:01.470Z,2.77
2023-07-23T09:53:28.129Z,2.30
2023-07-23T09:55:54.827Z,2.60
2023-07-23T09:58:21.502Z,2.40
2023-07-23T10:00:48.158Z,2.70
2023-07-23T10:03:17.994Z,1.87
2023-07-23T10:05:44.728Z,2.50
2023-07-23T10:08:11.348Z,2.30
2023-07-23T10:10:37.939Z,2.60
2023-07-23T10:13:04.602Z,2.67
2023-07-23T10:15:31.385Z,2.77
2023-07-23T10:18:00.106Z,2.97
2023-07-23T10:20:26.760Z,2.77
2023-07-23T10:22:53.323Z,2.87
2023-07-23T10:25:30.108Z,2.47
2023-07-23T10:27:58.079Z,2.07
2023-07-23T10:30:24.689Z,2.50
2023-07-23T10:32:51.384Z,2.60
2023-07-23T10:35:18.022Z,2.40
2023-07-23T10:37:44.789Z,2.63
2023-07-23T10:40:11.382Z,2.70
2023-07-23T10:42:40.194Z,2.23
2023-07-23T10:45:07.680Z,2.30
2023-07-23T10:47:34.381Z,2.97
2023-07-23T10:50:02.462Z,1.90
2023-07-23T10:52:29.069Z,2.87
2023-07-23T10:54:55.672Z,2.43
2023-07-23T10:57:22.240Z,3.00
2023-07-23T10:59:48.885Z,1.70
2023-07-23T11:02:15.492Z,2.97
2023-07-23T11:04:42.110Z,2.80
2023-07-23T11:07:08.756Z,2.60
2023-07-23T11:09:35.357Z,3.10
2023-07-23T11:12:02.035Z,2.30
2023-07-23T11:14:28.717Z,2.87
2023-07-23T11:16:55.791Z,2.60
2023-07-23T11:19:22.667Z,2.80
2023-07-23T11:21:50.663Z,2.60
2023-07-23T11:24:17.681Z,2.40
2023-07-23T11:26:44.344Z,2.03
2023-07-23T11:29:10.985Z,2.07
2023-07-23T11:31:38.041Z,2.20
2023-07-23T11:34:04.736Z,2.23
2023-07-23T11:36:31.405Z,2.50
2023-07-23T11:38:57.995Z,2.63
2023-07-23T11:41:29.895Z,2.60
2023-07-23T11:44:04.435Z,2.10
2023-07-23T11:46:31.137Z,2.30
2023-07-23T11:48:57.738Z,2.13
2023-07-23T11:51:24.393Z,1.93
2023-07-23T11:53:51.018Z,1.60
2023-07-23T11:56:17.658Z,1.73
2023-07-23T11:58:44.269Z,2.40
2023-07-23T12:01:11.090Z,2.47
2023-07-23T12:03:37.973Z,1.80
2023-07-23T12:06:05.816Z,1.87
2023-07-23T12:08:32.875Z,1.47
2023-07-23T12:11:01.992Z,2.60
2023-07-23T12:13:28.701Z,1.90
2023-07-23T12:15:55.924Z,2.00
2023-07-23T12:18:28.501Z,1.60
2023-07-23T12:20:57.563Z,2.00
2023-07-23T12:23:24.131Z,1.83
2023-07-23T12:25:50.735Z,1.97
2023-07-23T12:28:17.315Z,1.57
2023-07-23T12:30:43.934Z,1.50
2023-07-23T12:33:10.530Z,1.50
2023-07-23T12:35:37.384Z,1.63
2023-07-23T12:38:04.036Z,1.50
2023-07-23T12:40:31.871Z,1.57
2023-07-23T12:42:58.679Z,1.50
2023-07-23T12:45:25.248Z,1.40
2023-07-23T12:47:51.959Z,1.40
2023-07-23T12:50:18.544Z,1.63
2023-07-23T12:52:45.120Z,1.60
2023-07-23T12:55:11.749Z,1.23
2023-07-23T12:57:39.347Z,1.70
2023-07-23T13:00:06.054Z,1.50
2023-07-23T13:02:32.689Z,1.90
2023-07-23T13:04:59.246Z,1.43
2023-07-23T13:07:25.831Z,1.90
2023-07-23T13:09:52.992Z,2.13
2023-07-23T13:12:19.740Z,1.83
2023-07-23T13:14:47.190Z,2.10
2023-07-23T13:17:13.864Z,1.87
2023-07-23T13:19:40.558Z,1.80
2023-07-23T13:22:07.140Z,1.60
2023-07-23T13:24:33.747Z,1.53
2023-07-23T13:27:00.372Z,2.17
2023-07-23T13:29:26.957Z,1.60
2023-07-23T13:31:53.595Z,1.70
2023-07-23T13:34:20.181Z,1.80
2023-07-23T13:36:46.753Z,1.17
2023-07-23T13:39:13.351Z,0.90
2023-07-23T13:41:39.930Z,1.00
2023-07-23T13:44:06.567Z,1.27
2023-07-23T13:46:33.353Z,1.40
2023-07-23T13:49:00.143Z,1.40
2023-07-23T13:51:26.773Z,1.43
2023-07-23T13:53:53.343Z,1.40
2023-07-23T13:56:19.938Z,1.47
2023-07-23T13:58:46.558Z,1.80
2023-07-23T14:01:13.187Z,1.47
2023-07-23T14:03:39.776Z,1.60
2023-07-23T14:06:06.393Z,1.00
2023-07-23T14:08:34.499Z,1.33
2023-07-23T14:11:01.116Z,1.70
2023-07-23T14:13:27.707Z,1.57
2023-07-23T14:15:54.430Z,1.40
2023-07-23T14:18:21.261Z,1.30
2023-07-23T14:20:47.963Z,1.43
2023-07-23T14:23:14.627Z,1.50
2023-07-23T14:25:41.317Z,2.20
2023-07-23T14:28:07.966Z,1.70
2023-07-23T14:30:34.704Z,2.00
2023-07-23T14:33:01.508Z,1.47
2023-07-23T14:35:31.116Z,1.50
2023-07-23T14:37:58.017Z,1.80
2023-07-23T14:40:24.655Z,1.60
2023-07-23T14:42:51.252Z,1.80
2023-07-23T14:45:17.837Z,1.20
2023-07-23T14:47:44.888Z,1.47
2023-07-23T14:50:11.868Z,2.00
2023-07-23T14:52:38.510Z,1.37
2023-07-23T14:55:05.144Z,1.50
2023-07-23T14:57:31.837Z,1.40
2023-07-23T14:59:58.447Z,1.50
2023-07-23T15:02:25.090Z,1.23
2023-07-23T15:04:51.736Z,1.50
2023-07-23T15:07:18.348Z,1.47
2023-07-23T15:09:44.967Z,1.63
2023-07-23T15:12:11.541Z,1.60
2023-07-23T15:14:38.155Z,1.20
2023-07-23T15:17:04.768Z,1.63
2023-07-23T15:19:31.381Z,1.60
2023-07-23T15:21:57.959Z,1.33
2023-07-23T15:24:24.771Z,1.50
2023-07-23T15:26:51.419Z,1.20
2023-07-23T15:29:18.263Z,1.90
2023-07-23T15:31:44.938Z,1.50
2023-07-23T15:34:11.571Z,1.60
2023-07-23T15:36:38.215Z,1.70
2023-07-23T15:39:04.814Z,1.70
2023-07-23T15:41:31.547Z,1.57
2023-07-23T15:43:58.305Z,2.00
2023-07-23T15:46:24.992Z,1.73
2023-07-23T15:48:51.616Z,1.83
2023-07-23T15:51:18.439Z,1.60
2023-07-23T15:53:45.164Z,2.30
2023-07-23T15:56:11.816Z,1.80
2023-07-23T15:58:38.546Z,1.70
2023-07-23T16:01:05.218Z,1.90
2023-07-23T16:03:32.035Z,2.17
2023-07-23T16:05:58.811Z,1.60
2023-07-23T16:08:25.581Z,2.37
2023-07-23T16:10:52.599Z,2.17
2023-07-23T16:13:19.228Z,1.90
2023-07-23T16:15:45.916Z,2.20
2023-07-23T16:18:12.582Z,1.73
2023-07-23T16:20:39.248Z,1.93
2023-07-23T16:23:05.895Z,1.97
2023-07-23T16:25:32.579Z,1.80
2023-07-23T16:28:00.740Z,2.50
2023-07-23T16:30:27.355Z,2.40
2023-07-23T16:32:53.976Z,1.53
2023-07-23T16:35:20.876Z,1.90
2023-07-23T16:37:47.553Z,1.70
2023-07-23T16:40:14.117Z,2.10
2023-07-23T16:42:41.194Z,1.67
2023-07-23T16:45:07.844Z,2.20
2023-07-23T16:47:34.710Z,2.30
2023-07-23T16:50:02.910Z,2.00
2023-07-23T16:52:30.019Z,2.00
2023-07-23T16:54:56.651Z,1.23
2023-07-23T16:57:23.309Z,1.70
2023-07-23T16:59:50.191Z,1.53
2023-07-23T17:02:18.185Z,1.50
2023-07-23T17:04:44.907Z,1.47
2023-07-23T17:07:11.546Z,1.67
2023-07-23T17:09:39.760Z,2.10
2023-07-23T17:12:06.343Z,1.60
2023-07-23T17:14:33.063Z,1.40
2023-07-23T17:17:01.906Z,1.47
2023-07-23T17:19:28.756Z,1.10
2023-07-23T17:21:55.763Z,1.17
2023-07-23T17:24:22.456Z,1.10
2023-07-23T17:26:49.221Z,1.60
2023-07-23T17:29:15.819Z,1.93
2023-07-23T17:31:42.440Z,1.50
2023-07-23T17:34:09.051Z,1.70
2023-07-23T17:36:35.749Z,1.50
2023-07-23T17:39:02.389Z,1.60
2023-07-23T17:41:29.038Z,1.57
2023-07-23T17:43:55.706Z,1.70
2023-07-23T17:46:22.415Z,1.20
2023-07-23T17:48:49.094Z,1.20
2023-07-23T17:51:15.701Z,1.53
2023-07-23T17:53:42.316Z,1.17
2023-07-23T17:56:08.939Z,1.77
2023-07-23T17:58:35.511Z,1.60
2023-07-23T18:01:07.445Z,1.53
2023-07-23T18:03:39.379Z,1.27
2023-07-23T18:06:06.066Z,1.20
2023-07-23T18:08:32.796Z,1.00
2023-07-23T18:10:59.439Z,1.20
2023-07-23T18:13:27.625Z,1.13
2023-07-23T18:15:54.435Z,1.40
2023-07-23T18:18:21.064Z,1.13
2023-07-23T18:20:47.690Z,1.23
2023-07-23T18:23:14.331Z,1.17
2023-07-23T18:25:50.673Z,1.00
2023-07-23T18:28:25.745Z,1.07
2023-07-23T18:30:52.379Z,1.20
2023-07-23T18:33:19.014Z,1.33
2023-07-23T18:35:45.546Z,1.20
2023-07-23T18:38:12.132Z,1.43
2023-07-23T18:40:38.715Z,1.37
2023-07-23T18:43:05.376Z,1.40
2023-07-23T18:45:31.959Z,1.70
2023-07-23T18:47:58.551Z,2.00
2023-07-23T18:50:25.198Z,1.17
2023-07-23T18:52:51.830Z,1.50
2023-07-23T18:55:18.435Z,1.80
2023-07-23T18:57:45.425Z,1.27
2023-07-23T19:00:12.013Z,1.40
2023-07-23T19:02:38.662Z,1.57
2023-07-23T19:05:05.430Z,1.00
2023-07-23T19:07:32.054Z,1.30
2023-07-23T19:09:59.284Z,1.13
2023-07-23T19:12:25.951Z,1.43
2023-07-23T19:14:52.555Z,1.07
2023-07-23T19:17:19.256Z,1.13
2023-07-23T19:19:45.848Z,1.70
2023-07-23T19:22:12.690Z,1.40
2023-07-23T19:24:39.586Z,1.57
2023-07-23T19:27:06.487Z,1.20
2023-07-23T19:29:33.106Z,1.23
2023-07-23T19:31:59.751Z,1.00
2023-07-23T19:34:26.324Z,1.37
2023-07-23T19:36:53.065Z,1.57
2023-07-23T19:39:19.695Z,1.47
2023-07-23T19:41:47.692Z,1.50
2023-07-23T19:44:14.417Z,1.43
2023-07-23T19:46:40.966Z,1.47
2023-07-23T19:49:07.631Z,1.40
2023-07-23T19:51:34.246Z,2.03
2023-07-23T19:54:00.866Z,1.50
2023-07-23T19:56:27.863Z,1.53
2023-07-23T19:58:54.959Z,1.33
2023-07-23T20:01:21.655Z,1.87
2023-07-23T20:03:48.334Z,1.80
2023-07-23T20:06:14.967Z,1.70
2023-07-23T20:08:41.505Z,1.40
2023-07-23T20:11:09.554Z,1.50
2023-07-23T20:13:36.828Z,1.40
2023-07-23T20:16:03.761Z,1.60
2023-07-23T20:18:31.236Z,1.97
2023-07-23T20:20:57.822Z,1.77
2023-07-23T20:23:24.618Z,2.17
2023-07-23T20:25:51.481Z,1.50
2023-07-23T20:28:18.094Z,1.40
2023-07-23T20:30:44.729Z,1.60
2023-07-23T20:33:11.344Z,1.83
2023-07-23T20:35:37.908Z,1.63
2023-07-23T20:38:04.478Z,1.60
2023-07-23T20:40:31.257Z,1.80
2023-07-23T20:42:57.859Z,1.80
2023-07-23T20:45:24.460Z,1.67
2023-07-23T20:47:51.160Z,1.67
2023-07-23T20:50:17.814Z,1.77
2023-07-23T20:52:44.415Z,2.03
2023-07-23T20:55:11.394Z,1.90
2023-07-23T20:57:40.968Z,2.20
2023-07-23T21:00:07.571Z,1.60
2023-07-23T21:02:34.200Z,1.80
2023-07-23T21:05:00.816Z,1.90
2023-07-23T21:07:27.370Z,1.90
2023-07-23T21:09:54.012Z,1.90
2023-07-23T21:12:20.650Z,1.90
2023-07-23T21:14:47.202Z,2.00
2023-07-23T21:17:13.789Z,1.53
2023-07-23T21:19:40.392Z,2.10
2023-07-23T21:22:07.049Z,1.93
2023-07-23T21:24:35.799Z,1.57
2023-07-23T21:27:02.667Z,1.60
2023-07-23T21:29:29.277Z,1.70
2023-07-23T21:31:55.861Z,1.60
2023-07-23T21:34:22.393Z,1.53
2023-07-23T21:36:49.967Z,2.20
2023-07-23T21:39:16.603Z,1.90
2023-07-23T21:41:43.203Z,1.90
2023-07-23T21:44:11.702Z,2.93
2023-07-23T21:46:38.645Z,2.93
2023-07-23T21:49:05.251Z,2.17
2023-07-23T21:51:31.828Z,2.60
2023-07-23T21:53:58.434Z,1.93
2023-07-23T21:56:25.055Z,1.93
2023-07-23T21:58:51.890Z,2.33
2023-07-23T22:01:18.470Z,2.70
2023-07-23T22:03:46.274Z,1.97
2023-07-23T22:06:12.922Z,2.70
2023-07-23T22:08:39.724Z,2.27
2023-07-23T22:11:06.311Z,2.00
2023-07-23T22:13:33.173Z,2.37
2023-07-23T22:15:59.765Z,2.40
2023-07-23T22:18:26.482Z,2.27
2023-07-23T22:20:53.075Z,2.77
2023-07-23T22:23:19.635Z,2.20
2023-07-23T22:25:46.364Z,2.50
2023-07-23T22:28:13.056Z,1.97
2023-07-23T22:30:41.033Z,1.80
2023-07-23T22:33:07.694Z,2.10
2023-07-23T22:35:34.625Z,2.33
2023-07-23T22:38:01.256Z,1.90
2023-07-23T22:40:27.994Z,1.80
2023-07-23T22:43:04.129Z,1.87
2023-07-23T22:45:32.099Z,1.67
2023-07-23T22:47:58.875Z,1.93
2023-07-23T22:50:25.968Z,1.90
2023-07-23T22:52:53.079Z,2.57
2023-07-23T22:55:19.706Z,2.07
2023-07-23T22:57:46.515Z,2.20
2023-07-23T23:00:13.187Z,2.60
2023-07-23T23:02:39.943Z,2.50
2023-07-23T23:05:06.599Z,2.67
2023-07-23T23:07:33.167Z,2.60
2023-07-23T23:09:59.778Z,2.40
2023-07-23T23:12:26.339Z,2.60
2023-07-23T23:14:52.890Z,3.47
2023-07-23T23:17:19.579Z,2.87
2023-07-23T23:19:46.203Z,3.47
2023-07-23T23:22:12.857Z,2.80
2023-07-23T23:24:39.431Z,3.30
2023-07-23T23:27:06.095Z,3.60
2023-07-23T23:29:32.766Z,4.20
2023-07-23T23:31:59.394Z,2.87
2023-07-23T23:34:25.961Z,3.40
2023-07-23T23:36:52.529Z,2.80
2023-07-23T23:39:19.561Z,2.97
2023-07-23T23:41:46.123Z,2.70
2023-07-23T23:44:12.860Z,2.50
2023-07-23T23:46:39.511Z,2.20
2023-07-23T23:49:06.121Z,2.80
2023-07-23T23:51:32.687Z,2.63
2023-07-23T23:53:59.674Z,2.53
2023-07-23T23:56:26.358Z,2.73
2023-07-23T23:58:52.948Z,2.90
